Tell, Pennsylvania
Current Conditions -  °F | °C
As of 7:22 AM on Monday 26 Jan 2015 (Local Time) from KAOO Reporting Station
Light Snow Light Snow  
Wind Chill: 12°   Ceiling: 1800
Heat Index: 21°   Visibility: 3mi
Dew Point: 18°   Wind: 7mph
Humidity: 88%   Direction: 40°NE
Pressure: 29.76"   Gusts: NA
Location:  40.2561°N, 77.7747°W
Report Text: KAOO 261222Z AUTO 04006KT 3SM -SN BR FEW013 OVC018 M06/M08 A2976 RMK AO2 P0000 T10611078
Loading
Personal Weather Stations






























Interactive Weather Map New forecast layout! Learn more

10-Day Weather Forecast

Advertisements
Track Severe Weather on mobile